createdAt,value
2017-10-24T00:00:23.942Z,4.33
2017-10-24T00:05:25.892Z,3.87
2017-10-24T00:10:27.816Z,4.60
2017-10-24T00:15:30.623Z,5.17
2017-10-24T00:20:32.598Z,4.90
2017-10-24T00:25:34.556Z,5.30
2017-10-24T00:30:36.505Z,5.80
2017-10-24T00:35:38.424Z,5.60
2017-10-24T00:40:41.413Z,6.57
2017-10-24T00:45:43.383Z,6.20
2017-10-24T00:50:46.102Z,6.93
2017-10-24T00:55:48.124Z,7.33
2017-10-24T01:00:50.863Z,8.50
2017-10-24T01:05:53.461Z,10.07
2017-10-24T01:10:57.051Z,12.20
2017-10-24T01:15:59.078Z,13.07
2017-10-24T01:21:01.107Z,12.67
2017-10-24T01:26:03.930Z,13.30
2017-10-24T01:31:05.964Z,13.60
2017-10-24T01:36:08.002Z,14.57
2017-10-24T01:41:10.075Z,13.97
2017-10-24T01:46:12.082Z,14.63
2017-10-24T01:51:14.117Z,15.23
2017-10-24T01:56:16.143Z,16.70
2017-10-24T02:01:18.183Z,19.60
2017-10-24T02:06:20.143Z,18.43
2017-10-24T02:11:22.154Z,20.60
2017-10-24T02:16:24.172Z,20.20
2017-10-24T02:21:26.220Z,20.30
2017-10-24T02:26:28.226Z,20.40
2017-10-24T02:31:30.200Z,22.57
2017-10-24T02:36:32.152Z,22.83
2017-10-24T02:41:34.179Z,23.00
2017-10-24T02:46:36.154Z,25.57
2017-10-24T02:51:38.230Z,28.60
2017-10-24T02:56:40.902Z,30.63
2017-10-24T03:01:42.851Z,30.80
2017-10-24T03:06:44.765Z,29.03
2017-10-24T03:11:47.602Z,27.83
2017-10-24T03:16:49.525Z,27.73
2017-10-24T03:21:51.503Z,25.17
2017-10-24T03:26:53.504Z,27.00
2017-10-24T03:31:56.171Z,25.10
2017-10-24T03:36:58.104Z,27.20
2017-10-24T03:42:00.037Z,26.03
2017-10-24T03:47:02.679Z,28.00
2017-10-24T03:52:04.683Z,29.10
2017-10-24T03:57:06.698Z,30.20
2017-10-24T04:02:08.635Z,29.20
2017-10-24T04:07:10.620Z,32.00
2017-10-24T04:12:12.591Z,31.30
2017-10-24T04:17:14.548Z,31.43
2017-10-24T04:22:16.537Z,33.50
2017-10-24T04:27:18.521Z,33.70
2017-10-24T04:32:20.516Z,34.70
2017-10-24T04:37:22.532Z,34.90
2017-10-24T04:42:24.447Z,35.03
2017-10-24T04:47:26.387Z,34.63
2017-10-24T04:52:28.398Z,34.80
2017-10-24T04:57:31.074Z,33.73
2017-10-24T05:02:33.028Z,33.27
2017-10-24T05:07:35.719Z,33.57
2017-10-24T05:12:37.634Z,32.77
2017-10-24T05:17:39.614Z,32.97
2017-10-24T05:22:41.564Z,31.97
2017-10-24T05:27:44.311Z,33.87
2017-10-24T05:32:47.173Z,30.93
2017-10-24T05:37:49.891Z,29.00
2017-10-24T05:42:53.987Z,32.60
2017-10-24T05:47:56.259Z,30.87
2017-10-24T05:52:58.315Z,32.40
2017-10-24T05:58:00.978Z,31.43
2017-10-24T06:03:02.968Z,30.30
2017-10-24T06:08:04.886Z,30.63
2017-10-24T06:13:06.800Z,33.77
2017-10-24T06:18:08.840Z,32.23
2017-10-24T06:23:10.823Z,29.80
2017-10-24T06:28:12.792Z,27.13
2017-10-24T06:33:14.701Z,26.70
2017-10-24T06:38:16.693Z,31.83
2017-10-24T06:43:18.673Z,27.77
2017-10-24T06:48:20.664Z,28.03
2017-10-24T06:53:23.379Z,26.87
2017-10-24T06:58:26.086Z,25.23
2017-10-24T07:03:28.075Z,24.30
2017-10-24T07:08:30.024Z,24.10
2017-10-24T07:13:32.787Z,23.27
2017-10-24T07:18:34.806Z,23.23
2017-10-24T07:23:36.779Z,23.57
2017-10-24T07:28:38.721Z,20.87
2017-10-24T07:33:40.656Z,20.87
2017-10-24T07:38:43.373Z,19.10
2017-10-24T07:43:46.064Z,20.20
2017-10-24T07:48:48.040Z,19.30
2017-10-24T07:53:49.999Z,18.30
2017-10-24T07:58:52.054Z,19.33
2017-10-24T08:03:53.999Z,18.60
2017-10-24T08:08:56.026Z,19.90
2017-10-24T08:13:58.060Z,18.67
2017-10-24T08:19:00.101Z,20.97
2017-10-24T08:24:02.056Z,24.13
2017-10-24T08:29:04.014Z,21.57
2017-10-24T08:34:05.948Z,21.20
2017-10-24T08:39:07.897Z,19.90
2017-10-24T08:44:13.866Z,19.23
2017-10-24T08:49:15.784Z,19.07
2017-10-24T08:54:17.986Z,19.80
2017-10-24T08:59:19.931Z,19.57
2017-10-24T09:04:21.933Z,19.67
2017-10-24T09:15:05.064Z,15.90
2017-10-24T09:20:09.744Z,16.87
2017-10-24T09:25:11.851Z,16.67
2017-10-24T09:30:19.062Z,16.00
2017-10-24T09:35:22.104Z,13.63
2017-10-24T09:40:24.094Z,13.80
2017-10-24T09:45:27.163Z,12.90
2017-10-24T09:50:29.423Z,12.73
2017-10-24T09:55:31.364Z,12.20
2017-10-24T10:00:33.399Z,11.00
2017-10-24T10:05:35.540Z,11.57
2017-10-24T10:10:37.527Z,9.00
2017-10-24T10:15:39.581Z,8.73
2017-10-24T10:20:41.607Z,9.50
2017-10-24T10:25:43.598Z,6.80
2017-10-24T10:30:45.877Z,6.30
2017-10-24T10:35:47.751Z,6.30
2017-10-24T10:40:50.429Z,5.90
2017-10-24T10:45:52.456Z,5.53
2017-10-24T10:50:54.411Z,5.10
2017-10-24T10:55:56.342Z,6.20
2017-10-24T11:00:58.322Z,5.37
2017-10-24T11:06:00.577Z,4.77
2017-10-24T11:11:02.506Z,4.90
2017-10-24T11:16:08.770Z,4.90
2017-10-24T11:21:11.031Z,5.53
2017-10-24T11:26:13.747Z,6.20
2017-10-24T11:31:15.679Z,6.67
2017-10-24T11:36:17.648Z,5.40
2017-10-24T11:41:20.318Z,5.93
2017-10-24T11:46:22.315Z,6.27
2017-10-24T11:51:24.270Z,8.07
2017-10-24T11:56:26.677Z,5.53
2017-10-24T12:01:28.796Z,5.90
2017-10-24T12:06:30.860Z,5.60
2017-10-24T12:11:32.801Z,6.13
2017-10-24T12:16:35.181Z,5.93
2017-10-24T12:21:37.108Z,6.90
2017-10-24T12:26:39.046Z,6.57
2017-10-24T12:31:40.979Z,6.53
2017-10-24T12:36:42.927Z,7.10
2017-10-24T12:41:45.014Z,6.90
2017-10-24T12:46:57.840Z,6.73
2017-10-24T12:51:59.992Z,7.53
2017-10-24T12:57:02.009Z,7.30
2017-10-24T13:02:04.050Z,7.60
2017-10-24T13:07:06.516Z,13.20
2017-10-24T13:12:08.480Z,8.50
2017-10-24T13:17:10.422Z,9.23
2017-10-24T13:22:12.409Z,9.33
2017-10-24T13:27:14.340Z,8.40
2017-10-24T13:32:16.313Z,8.40
2017-10-24T13:37:18.247Z,7.80
2017-10-24T13:42:20.163Z,8.03
2017-10-24T13:47:22.927Z,8.30
2017-10-24T13:52:24.887Z,8.00
2017-10-24T13:57:27.089Z,7.27
2017-10-24T14:02:29.071Z,6.50
2017-10-24T14:07:36.941Z,6.37
2017-10-24T14:12:38.898Z,6.27
2017-10-24T14:17:40.882Z,6.70
2017-10-24T14:22:42.947Z,6.80
2017-10-24T14:27:44.958Z,6.97
2017-10-24T14:32:46.889Z,7.10
2017-10-24T14:37:48.838Z,7.50
2017-10-24T14:42:50.788Z,8.30
2017-10-24T14:47:52.691Z,8.93
2017-10-24T14:52:55.364Z,8.77
2017-10-24T14:57:57.287Z,7.93
2017-10-24T15:02:59.192Z,9.37
2017-10-24T15:08:01.140Z,9.80
2017-10-24T15:13:03.112Z,9.43
2017-10-24T15:18:05.063Z,8.87
2017-10-24T15:23:07.104Z,8.83
2017-10-24T15:28:09.060Z,8.70
2017-10-24T15:33:11.056Z,8.77
2017-10-24T15:38:13.707Z,9.67
2017-10-24T15:43:16.233Z,8.53
2017-10-24T15:48:18.207Z,8.80
2017-10-24T15:53:20.940Z,16.70
2017-10-24T15:58:22.908Z,13.93
2017-10-24T16:03:24.882Z,13.77
2017-10-24T16:08:26.892Z,12.30
2017-10-24T16:13:28.845Z,14.50
2017-10-24T16:18:30.777Z,14.70
2017-10-24T16:23:32.692Z,14.43
2017-10-24T16:28:34.634Z,17.00
2017-10-24T16:33:36.735Z,15.07
2017-10-24T16:38:38.710Z,15.37
2017-10-24T16:43:40.661Z,14.80
2017-10-24T16:48:43.316Z,15.80
2017-10-24T16:53:45.255Z,15.23
2017-10-24T16:58:47.195Z,15.20
2017-10-24T17:03:49.115Z,15.20
2017-10-24T17:08:55.545Z,17.30
2017-10-24T17:14:03.827Z,17.33
2017-10-24T17:19:07.494Z,17.60
2017-10-24T17:24:09.563Z,15.60
2017-10-24T17:29:11.451Z,16.30
2017-10-24T17:34:13.411Z,17.83
2017-10-24T17:39:16.221Z,19.17
2017-10-24T17:44:22.416Z,18.03
2017-10-24T17:49:24.356Z,20.00
2017-10-24T17:54:27.086Z,18.13
2017-10-24T17:59:30.025Z,18.93
2017-10-24T18:04:31.975Z,20.07
2017-10-24T18:09:33.921Z,19.70
2017-10-24T18:14:35.933Z,20.00
2017-10-24T18:19:38.068Z,18.80
2017-10-24T18:24:40.412Z,18.57
2017-10-24T18:29:42.365Z,19.10
2017-10-24T18:34:44.313Z,15.90
2017-10-24T18:39:46.420Z,15.00
2017-10-24T18:44:48.318Z,14.20
2017-10-24T18:49:50.312Z,13.23
2017-10-24T18:54:52.285Z,13.77
2017-10-24T18:59:54.314Z,12.63
2017-10-24T19:04:56.351Z,12.33
2017-10-24T19:09:58.456Z,11.20
2017-10-24T19:15:00.899Z,10.90
2017-10-24T19:20:03.626Z,10.40
2017-10-24T19:25:05.550Z,9.93
2017-10-24T19:30:07.475Z,8.57
2017-10-24T19:35:09.434Z,8.53
2017-10-24T19:40:11.356Z,10.20
2017-10-24T19:45:13.367Z,11.30
2017-10-24T19:50:15.319Z,11.90
2017-10-24T19:55:17.231Z,15.53
2017-10-24T20:00:19.170Z,16.83
2017-10-24T20:05:21.075Z,17.80
2017-10-24T20:10:23.009Z,18.70
2017-10-24T20:15:24.970Z,18.13
2017-10-24T20:20:26.975Z,19.77
2017-10-24T20:25:28.942Z,21.90
2017-10-24T20:30:30.895Z,23.47
2017-10-24T20:35:32.818Z,23.50
2017-10-24T20:40:34.772Z,23.60
2017-10-24T20:45:37.476Z,25.50
2017-10-24T20:50:39.433Z,26.47
2017-10-24T20:55:41.408Z,26.60
2017-10-24T21:00:43.339Z,28.60
2017-10-24T21:05:45.253Z,30.23
2017-10-24T21:10:47.192Z,31.33
2017-10-24T21:15:49.108Z,33.10
2017-10-24T21:20:51.176Z,31.97
2017-10-24T21:25:53.127Z,34.73
2017-10-24T21:30:55.790Z,34.70
2017-10-24T21:35:57.704Z,35.73
2017-10-24T21:40:59.707Z,36.13
2017-10-24T21:46:01.641Z,35.40
2017-10-24T21:51:03.604Z,36.00
2017-10-24T21:56:05.706Z,35.10
2017-10-24T22:01:07.731Z,36.80
2017-10-24T22:06:09.677Z,37.30
2017-10-24T22:11:12.339Z,37.27
2017-10-24T22:16:14.277Z,36.40
2017-10-24T22:21:16.199Z,37.43
2017-10-24T22:26:18.149Z,38.23
2017-10-24T22:31:20.047Z,38.17
2017-10-24T22:36:21.973Z,35.77
2017-10-24T22:41:23.904Z,36.27
2017-10-24T22:46:25.867Z,37.37
2017-10-24T22:51:27.852Z,34.67
2017-10-24T22:56:29.792Z,35.90
2017-10-24T23:01:31.708Z,35.70
2017-10-24T23:06:33.650Z,37.27
2017-10-24T23:11:36.336Z,38.10
2017-10-24T23:16:38.277Z,38.33
2017-10-24T23:21:40.939Z,36.33
2017-10-24T23:26:42.883Z,35.07
2017-10-24T23:31:45.573Z,36.80
2017-10-24T23:36:47.503Z,36.73
2017-10-24T23:41:49.404Z,36.60
2017-10-24T23:46:51.349Z,35.27
2017-10-24T23:51:53.328Z,34.37
2017-10-24T23:56:55.983Z,35.20
